EIN850 EICK-LEBB
Flight info
| Callsign | EIN850 |
|---|---|
| Flight time | 1h 35m |
| Altitude | 35000 |
| Route | ERTER1N ERTER DCT LESLU DCT ADRUD DCT GATMO DCT NENEM DCT MAPAX MAPAX1W |
| Aircraft | A320/M-SDE3FGHIRWY/LB1 |
Departure
| Time | 2026-04-29 18:59 |
|---|---|
| Airport | Cork International Airport (EICK) |
Arrival
| Time | 2026-04-29 20:35 |
|---|---|
| Airport | Bilbao Airport (LEBB) |
| Time | Latitude | Longitude | Altitude | Speed | Heading |
|---|---|---|---|---|---|
| 2026-04-29 18:41 | 51.84938 | -8.49115 | 503 ft | 0 kts | 70° |
| 2026-04-29 18:45 | 51.84938 | -8.49116 | 503 ft | 0 kts | 70° |
| 2026-04-29 18:49 | 51.84936 | -8.49125 | 503 ft | 4 kts | 72° |
| 2026-04-29 18:50 | 51.84930 | -8.49167 | 503 ft | 4 kts | 81° |
| 2026-04-29 18:50 | 51.84926 | -8.49202 | 503 ft | 2 kts | 74° |
| 2026-04-29 18:50 | 51.84923 | -8.49242 | 503 ft | 4 kts | 111° |
| 2026-04-29 18:50 | 51.84938 | -8.49271 | 503 ft | 4 kts | 162° |
| 2026-04-29 18:51 | 51.84945 | -8.49275 | 503 ft | 2 kts | 167° |
| 2026-04-29 18:54 | 51.84909 | -8.49260 | 503 ft | 9 kts | 164° |
| 2026-04-29 18:54 | 51.84855 | -8.49230 | 503 ft | 7 kts | 163° |
| 2026-04-29 18:55 | 51.84800 | -8.49210 | 503 ft | 8 kts | 169° |
| 2026-04-29 18:55 | 51.84748 | -8.49191 | 503 ft | 10 kts | 163° |
| 2026-04-29 18:55 | 51.84669 | -8.49145 | 502 ft | 14 kts | 159° |
| 2026-04-29 18:55 | 51.84554 | -8.49076 | 497 ft | 20 kts | 160° |
| 2026-04-29 18:56 | 51.84423 | -8.48998 | 488 ft | 19 kts | 159° |
| 2026-04-29 18:56 | 51.84344 | -8.49037 | 484 ft | 14 kts | 243° |
| 2026-04-29 18:56 | 51.84280 | -8.49186 | 480 ft | 16 kts | 196° |
| 2026-04-29 18:56 | 51.84166 | -8.49130 | 479 ft | 21 kts | 160° |
| 2026-04-29 18:57 | 51.83986 | -8.49023 | 470 ft | 34 kts | 160° |
| 2026-04-29 18:57 | 51.83746 | -8.48881 | 465 ft | 37 kts | 160° |
| 2026-04-29 18:57 | 51.83507 | -8.48740 | 469 ft | 36 kts | 160° |
| 2026-04-29 18:57 | 51.83308 | -8.48606 | 469 ft | 16 kts | 128° |
| 2026-04-29 18:58 | 51.83261 | -8.48572 | 471 ft | 7 kts | 247° |
| 2026-04-29 18:58 | 51.83282 | -8.48609 | 471 ft | 0 kts | 342° |
| 2026-04-29 18:58 | 51.83284 | -8.48610 | 471 ft | 2 kts | 342° |
| 2026-04-29 18:58 | 51.83429 | -8.48691 | 470 ft | 57 kts | 341° |
| 2026-04-29 18:59 | 51.84028 | -8.49047 | 474 ft | 122 kts | 340° |
| 2026-04-29 18:59 | 51.84980 | -8.49616 | 576 ft | 162 kts | 346° |
| 2026-04-29 18:59 | 51.85996 | -8.50225 | 1318 ft | 156 kts | 352° |
| 2026-04-29 18:59 | 51.87032 | -8.50740 | 1929 ft | 158 kts | 354° |
| 2026-04-29 19:00 | 51.88146 | -8.51260 | 2221 ft | 176 kts | 353° |
| 2026-04-29 19:00 | 51.89411 | -8.51854 | 2469 ft | 201 kts | 351° |
| 2026-04-29 19:00 | 51.90845 | -8.52218 | 2695 ft | 215 kts | 17° |
| 2026-04-29 19:00 | 51.92129 | -8.51022 | 3049 ft | 222 kts | 57° |
| 2026-04-29 19:01 | 51.92582 | -8.48629 | 3571 ft | 231 kts | 96° |
| 2026-04-29 19:01 | 51.92081 | -8.46171 | 4305 ft | 239 kts | 116° |
| 2026-04-29 19:01 | 51.91200 | -8.43804 | 5121 ft | 245 kts | 122° |
| 2026-04-29 19:01 | 51.90254 | -8.41528 | 5968 ft | 248 kts | 122° |
| 2026-04-29 19:02 | 51.89296 | -8.39192 | 6819 ft | 250 kts | 121° |
| 2026-04-29 19:02 | 51.88664 | -8.37590 | 7399 ft | 250 kts | 121° |
| 2026-04-29 19:02 | 51.87454 | -8.34396 | 8501 ft | 252 kts | 120° |
| 2026-04-29 19:02 | 51.86565 | -8.31944 | 9338 ft | 253 kts | 119° |
| 2026-04-29 19:03 | 51.85675 | -8.29425 | 10176 ft | 255 kts | 119° |
| 2026-04-29 19:03 | 51.84764 | -8.26930 | 10616 ft | 272 kts | 123° |
| 2026-04-29 19:03 | 51.83517 | -8.24467 | 10831 ft | 296 kts | 132° |
| 2026-04-29 19:03 | 51.82010 | -8.21949 | 11032 ft | 318 kts | 132° |
| 2026-04-29 19:04 | 51.80469 | -8.19369 | 11522 ft | 327 kts | 132° |
| 2026-04-29 19:04 | 51.78874 | -8.16709 | 12169 ft | 332 kts | 133° |
| 2026-04-29 19:04 | 51.77255 | -8.14017 | 12831 ft | 336 kts | 133° |
| 2026-04-29 19:04 | 51.75617 | -8.11295 | 13483 ft | 339 kts | 133° |
| 2026-04-29 19:05 | 51.73817 | -8.08804 | 14109 ft | 345 kts | 144° |
| 2026-04-29 19:05 | 51.71676 | -8.07017 | 14700 ft | 351 kts | 156° |
| 2026-04-29 19:05 | 51.69289 | -8.06072 | 15326 ft | 358 kts | 169° |
| 2026-04-29 19:05 | 51.66781 | -8.05955 | 15948 ft | 363 kts | 175° |
| 2026-04-29 19:06 | 51.64250 | -8.05976 | 16582 ft | 364 kts | 175° |
| 2026-04-29 19:06 | 51.61712 | -8.05994 | 17202 ft | 366 kts | 175° |
| 2026-04-29 19:06 | 51.56598 | -8.06022 | 18440 ft | 369 kts | 175° |
| 2026-04-29 19:07 | 51.54030 | -8.05929 | 18960 ft | 370 kts | 173° |
| 2026-04-29 19:07 | 51.52326 | -8.05786 | 19309 ft | 370 kts | 172° |
| 2026-04-29 19:07 | 51.48882 | -8.05382 | 20004 ft | 372 kts | 171° |
| 2026-04-29 19:07 | 51.46297 | -8.05042 | 20508 ft | 374 kts | 171° |
| 2026-04-29 19:08 | 51.43699 | -8.04705 | 21006 ft | 375 kts | 171° |
| 2026-04-29 19:08 | 51.41091 | -8.04387 | 21492 ft | 377 kts | 172° |
| 2026-04-29 19:08 | 51.38466 | -8.04090 | 21968 ft | 378 kts | 172° |
| 2026-04-29 19:08 | 51.35834 | -8.03804 | 22434 ft | 380 kts | 172° |
| 2026-04-29 19:09 | 51.33189 | -8.03521 | 22883 ft | 382 kts | 172° |
| 2026-04-29 19:09 | 51.30534 | -8.03239 | 23318 ft | 383 kts | 172° |
| 2026-04-29 19:09 | 51.27868 | -8.02957 | 23736 ft | 385 kts | 172° |
| 2026-04-29 19:09 | 51.25190 | -8.02674 | 24080 ft | 386 kts | 173° |
| 2026-04-29 19:10 | 51.22505 | -8.02390 | 24430 ft | 388 kts | 172° |
| 2026-04-29 19:10 | 51.19810 | -8.02106 | 24754 ft | 389 kts | 173° |
| 2026-04-29 19:10 | 51.18019 | -8.01916 | 24971 ft | 390 kts | 173° |
| 2026-04-29 19:10 | 51.14389 | -8.01528 | 25400 ft | 392 kts | 173° |
| 2026-04-29 19:11 | 51.11664 | -8.01239 | 25719 ft | 393 kts | 173° |
| 2026-04-29 19:11 | 51.08928 | -8.00950 | 26029 ft | 395 kts | 173° |
| 2026-04-29 19:11 | 51.06185 | -8.00658 | 26327 ft | 396 kts | 173° |
| 2026-04-29 19:11 | 51.03428 | -8.00361 | 26622 ft | 397 kts | 172° |
| 2026-04-29 19:12 | 51.00708 | -7.99665 | 26897 ft | 396 kts | 163° |
| 2026-04-29 19:12 | 50.98115 | -7.98241 | 27164 ft | 395 kts | 155° |
| 2026-04-29 19:12 | 50.95681 | -7.96200 | 27426 ft | 396 kts | 150° |
| 2026-04-29 19:12 | 50.94091 | -7.94786 | 27603 ft | 397 kts | 150° |
| 2026-04-29 19:13 | 50.90857 | -7.91921 | 27937 ft | 399 kts | 151° |
| 2026-04-29 19:13 | 50.88429 | -7.89775 | 28178 ft | 400 kts | 151° |
| 2026-04-29 19:13 | 50.85998 | -7.87628 | 28414 ft | 401 kts | 151° |
| 2026-04-29 19:13 | 50.83555 | -7.85474 | 28661 ft | 401 kts | 151° |
| 2026-04-29 19:14 | 50.81121 | -7.83337 | 28982 ft | 400 kts | 151° |
| 2026-04-29 19:14 | 50.78688 | -7.81208 | 29317 ft | 399 kts | 151° |
| 2026-04-29 19:14 | 50.76268 | -7.79091 | 29634 ft | 398 kts | 151° |
| 2026-04-29 19:14 | 50.73851 | -7.76978 | 29957 ft | 397 kts | 151° |
| 2026-04-29 19:15 | 50.71440 | -7.74874 | 30255 ft | 396 kts | 151° |
| 2026-04-29 19:15 | 50.69029 | -7.72771 | 30509 ft | 395 kts | 151° |
| 2026-04-29 19:15 | 50.66657 | -7.70701 | 30759 ft | 395 kts | 151° |
| 2026-04-29 19:15 | 50.64223 | -7.68580 | 31021 ft | 394 kts | 151° |
| 2026-04-29 19:16 | 50.61856 | -7.66521 | 31275 ft | 394 kts | 151° |
| 2026-04-29 19:16 | 50.59456 | -7.64434 | 31518 ft | 393 kts | 151° |
| 2026-04-29 19:16 | 50.57061 | -7.62354 | 31781 ft | 393 kts | 151° |
| 2026-04-29 19:16 | 50.54673 | -7.60283 | 32035 ft | 392 kts | 151° |
| 2026-04-29 19:17 | 50.52282 | -7.58210 | 32283 ft | 392 kts | 151° |
| 2026-04-29 19:17 | 50.49890 | -7.56141 | 32528 ft | 392 kts | 151° |
| 2026-04-29 19:17 | 50.47505 | -7.54080 | 32774 ft | 392 kts | 151° |
| 2026-04-29 19:17 | 50.45117 | -7.52017 | 33015 ft | 391 kts | 151° |
| 2026-04-29 19:18 | 50.42732 | -7.49958 | 33252 ft | 391 kts | 152° |
| 2026-04-29 19:18 | 50.41120 | -7.48568 | 33418 ft | 391 kts | 152° |
| 2026-04-29 19:18 | 50.37963 | -7.45852 | 33731 ft | 391 kts | 152° |
| 2026-04-29 19:18 | 50.35575 | -7.43803 | 33979 ft | 391 kts | 152° |
| 2026-04-29 19:19 | 50.33192 | -7.41758 | 34193 ft | 391 kts | 152° |
| 2026-04-29 19:19 | 50.30806 | -7.39714 | 34360 ft | 392 kts | 152° |
| 2026-04-29 19:19 | 50.28412 | -7.37666 | 34526 ft | 393 kts | 152° |
| 2026-04-29 19:19 | 50.26013 | -7.35615 | 34677 ft | 394 kts | 152° |
| 2026-04-29 19:20 | 50.23603 | -7.33557 | 34830 ft | 395 kts | 152° |
| 2026-04-29 19:20 | 50.21186 | -7.31495 | 34981 ft | 396 kts | 152° |
| 2026-04-29 19:20 | 50.18755 | -7.29423 | 35025 ft | 399 kts | 152° |
| 2026-04-29 19:21 | 50.13868 | -7.25259 | 35028 ft | 401 kts | 152° |
| 2026-04-29 19:21 | 50.08970 | -7.21105 | 35020 ft | 401 kts | 152° |
| 2026-04-29 19:22 | 50.04097 | -7.16988 | 35023 ft | 401 kts | 152° |
| 2026-04-29 19:22 | 49.99191 | -7.12839 | 35024 ft | 401 kts | 152° |
| 2026-04-29 19:23 | 49.94286 | -7.08700 | 35016 ft | 401 kts | 152° |
| 2026-04-29 19:23 | 49.89375 | -7.04581 | 35016 ft | 401 kts | 152° |
| 2026-04-29 19:24 | 49.84465 | -7.00463 | 35005 ft | 401 kts | 152° |
| 2026-04-29 19:24 | 49.79560 | -6.96349 | 35002 ft | 401 kts | 152° |
| 2026-04-29 19:25 | 49.74646 | -6.92247 | 35002 ft | 401 kts | 152° |
| 2026-04-29 19:25 | 49.70566 | -6.88849 | 34993 ft | 401 kts | 152° |
| 2026-04-29 19:26 | 49.65650 | -6.84761 | 34985 ft | 401 kts | 152° |
| 2026-04-29 19:26 | 49.60738 | -6.80690 | 34991 ft | 401 kts | 152° |
| 2026-04-29 19:27 | 49.55824 | -6.76630 | 34983 ft | 401 kts | 152° |
| 2026-04-29 19:27 | 49.50903 | -6.72567 | 34987 ft | 401 kts | 152° |
| 2026-04-29 19:28 | 49.45988 | -6.68511 | 34978 ft | 401 kts | 152° |
| 2026-04-29 19:28 | 49.41073 | -6.64469 | 34981 ft | 401 kts | 153° |
| 2026-04-29 19:29 | 49.36154 | -6.60436 | 34975 ft | 401 kts | 153° |
| 2026-04-29 19:29 | 49.31233 | -6.56413 | 34971 ft | 401 kts | 153° |
| 2026-04-29 19:30 | 49.26314 | -6.52395 | 34969 ft | 401 kts | 153° |
| 2026-04-29 19:30 | 49.21389 | -6.48382 | 34965 ft | 401 kts | 153° |
| 2026-04-29 19:31 | 49.16487 | -6.44397 | 34960 ft | 401 kts | 152° |
| 2026-04-29 19:31 | 49.11672 | -6.40059 | 34959 ft | 402 kts | 149° |
| 2026-04-29 19:32 | 49.06944 | -6.35499 | 34956 ft | 402 kts | 149° |
| 2026-04-29 19:32 | 49.02202 | -6.30982 | 34951 ft | 402 kts | 149° |
| 2026-04-29 19:33 | 48.97427 | -6.26533 | 34959 ft | 402 kts | 150° |
| 2026-04-29 19:33 | 48.92643 | -6.22112 | 34957 ft | 403 kts | 150° |
| 2026-04-29 19:34 | 48.87851 | -6.17687 | 34953 ft | 403 kts | 150° |
| 2026-04-29 19:34 | 48.83063 | -6.13259 | 34951 ft | 403 kts | 150° |
| 2026-04-29 19:35 | 48.78268 | -6.08840 | 34949 ft | 403 kts | 150° |
| 2026-04-29 19:35 | 48.73472 | -6.04430 | 34947 ft | 404 kts | 150° |
| 2026-04-29 19:36 | 48.68668 | -6.00016 | 34942 ft | 404 kts | 150° |
| 2026-04-29 19:36 | 48.63862 | -5.95617 | 34941 ft | 404 kts | 150° |
| 2026-04-29 19:37 | 48.59045 | -5.91235 | 34937 ft | 404 kts | 150° |
| 2026-04-29 19:37 | 48.54227 | -5.86850 | 34936 ft | 405 kts | 150° |
| 2026-04-29 19:38 | 48.49401 | -5.82463 | 34935 ft | 405 kts | 150° |
| 2026-04-29 19:38 | 48.44604 | -5.78110 | 34935 ft | 405 kts | 150° |
| 2026-04-29 19:39 | 48.39768 | -5.73737 | 34931 ft | 406 kts | 150° |
| 2026-04-29 19:39 | 48.34924 | -5.69370 | 34928 ft | 406 kts | 150° |
| 2026-04-29 19:40 | 48.30081 | -5.65002 | 34927 ft | 406 kts | 150° |
| 2026-04-29 19:40 | 48.25232 | -5.60638 | 34924 ft | 407 kts | 150° |
| 2026-04-29 19:41 | 48.20361 | -5.56276 | 34926 ft | 407 kts | 150° |
| 2026-04-29 19:41 | 48.15490 | -5.51913 | 34920 ft | 408 kts | 150° |
| 2026-04-29 19:42 | 48.10609 | -5.47550 | 34920 ft | 409 kts | 151° |
| 2026-04-29 19:42 | 48.05750 | -5.43220 | 34918 ft | 410 kts | 151° |
| 2026-04-29 19:43 | 48.00847 | -5.38868 | 34916 ft | 410 kts | 151° |
| 2026-04-29 19:43 | 47.95934 | -5.34511 | 34915 ft | 411 kts | 151° |
| 2026-04-29 19:44 | 47.91012 | -5.30151 | 34915 ft | 412 kts | 151° |
| 2026-04-29 19:44 | 47.86081 | -5.25799 | 34915 ft | 412 kts | 152° |
| 2026-04-29 19:45 | 47.81141 | -5.21454 | 34911 ft | 413 kts | 152° |
| 2026-04-29 19:45 | 47.76193 | -5.17104 | 34913 ft | 413 kts | 152° |
| 2026-04-29 19:46 | 47.71243 | -5.12761 | 34912 ft | 413 kts | 152° |
| 2026-04-29 19:46 | 47.66286 | -5.08428 | 34913 ft | 414 kts | 152° |
| 2026-04-29 19:47 | 47.61328 | -5.04098 | 34914 ft | 414 kts | 152° |
| 2026-04-29 19:47 | 47.56359 | -4.99772 | 34910 ft | 414 kts | 152° |
| 2026-04-29 19:48 | 47.51391 | -4.95454 | 34914 ft | 414 kts | 152° |
| 2026-04-29 19:48 | 47.46419 | -4.91146 | 34912 ft | 414 kts | 152° |
| 2026-04-29 19:49 | 47.41448 | -4.86848 | 34914 ft | 414 kts | 152° |
| 2026-04-29 19:49 | 47.36472 | -4.82547 | 34908 ft | 415 kts | 152° |
| 2026-04-29 19:50 | 47.31521 | -4.78285 | 34906 ft | 415 kts | 152° |
| 2026-04-29 19:50 | 47.26532 | -4.73994 | 34909 ft | 415 kts | 152° |
| 2026-04-29 19:51 | 47.21547 | -4.69701 | 34910 ft | 415 kts | 152° |
| 2026-04-29 19:51 | 47.16551 | -4.65428 | 34906 ft | 415 kts | 153° |
| 2026-04-29 19:52 | 47.11545 | -4.61164 | 34902 ft | 416 kts | 153° |
| 2026-04-29 19:52 | 47.06538 | -4.56907 | 34904 ft | 416 kts | 153° |
| 2026-04-29 19:53 | 47.01526 | -4.52646 | 34903 ft | 416 kts | 153° |
| 2026-04-29 19:53 | 46.96512 | -4.48386 | 34901 ft | 417 kts | 153° |
| 2026-04-29 19:54 | 46.88977 | -4.42016 | 34902 ft | 417 kts | 153° |
| 2026-04-29 19:54 | 46.83944 | -4.37778 | 34904 ft | 417 kts | 153° |
| 2026-04-29 19:55 | 46.78945 | -4.33561 | 34908 ft | 418 kts | 153° |
| 2026-04-29 19:55 | 46.73910 | -4.29336 | 34901 ft | 418 kts | 153° |
| 2026-04-29 19:56 | 46.68868 | -4.25112 | 34905 ft | 418 kts | 153° |
| 2026-04-29 19:56 | 46.63821 | -4.20884 | 34895 ft | 418 kts | 153° |
| 2026-04-29 19:57 | 46.59630 | -4.17375 | 34898 ft | 418 kts | 153° |
| 2026-04-29 19:57 | 46.53729 | -4.12461 | 34899 ft | 418 kts | 153° |
| 2026-04-29 19:58 | 46.48672 | -4.08260 | 34898 ft | 419 kts | 153° |
| 2026-04-29 19:58 | 46.43614 | -4.04074 | 34893 ft | 419 kts | 153° |
| 2026-04-29 19:59 | 46.38555 | -3.99887 | 34899 ft | 419 kts | 153° |
| 2026-04-29 19:59 | 46.33490 | -3.95699 | 34896 ft | 419 kts | 153° |
| 2026-04-29 20:00 | 46.28418 | -3.91518 | 34894 ft | 419 kts | 153° |
| 2026-04-29 20:00 | 46.23374 | -3.87372 | 34895 ft | 420 kts | 153° |
| 2026-04-29 20:01 | 46.18295 | -3.83212 | 34896 ft | 420 kts | 153° |
| 2026-04-29 20:01 | 46.13205 | -3.79043 | 34894 ft | 420 kts | 153° |
| 2026-04-29 20:02 | 46.08119 | -3.74888 | 34896 ft | 421 kts | 153° |
| 2026-04-29 20:02 | 46.04673 | -3.72221 | 34893 ft | 419 kts | 159° |
| 2026-04-29 20:03 | 46.00062 | -3.70235 | 34892 ft | 416 kts | 170° |
| 2026-04-29 20:03 | 45.97224 | -3.69421 | 34887 ft | 416 kts | 170° |
| 2026-04-29 20:03 | 45.91542 | -3.67768 | 34891 ft | 417 kts | 169° |
| 2026-04-29 20:04 | 45.85858 | -3.66096 | 34897 ft | 417 kts | 169° |
| 2026-04-29 20:04 | 45.80173 | -3.64427 | 34894 ft | 417 kts | 169° |
| 2026-04-29 20:05 | 45.74488 | -3.62772 | 34898 ft | 417 kts | 169° |
| 2026-04-29 20:05 | 45.68789 | -3.61123 | 34893 ft | 417 kts | 169° |
| 2026-04-29 20:06 | 45.63099 | -3.59475 | 34893 ft | 417 kts | 169° |
| 2026-04-29 20:06 | 45.57414 | -3.57823 | 34894 ft | 417 kts | 169° |
| 2026-04-29 20:07 | 45.51727 | -3.56183 | 34899 ft | 417 kts | 169° |
| 2026-04-29 20:07 | 45.46039 | -3.54549 | 34898 ft | 417 kts | 169° |
| 2026-04-29 20:08 | 45.41316 | -3.53194 | 34895 ft | 417 kts | 169° |
| 2026-04-29 20:08 | 45.34669 | -3.51285 | 34891 ft | 417 kts | 169° |
| 2026-04-29 20:09 | 45.28987 | -3.49654 | 34890 ft | 417 kts | 169° |
| 2026-04-29 20:09 | 45.23302 | -3.48038 | 34883 ft | 417 kts | 170° |
| 2026-04-29 20:10 | 45.17617 | -3.46422 | 34879 ft | 417 kts | 169° |
| 2026-04-29 20:10 | 45.11928 | -3.44802 | 34880 ft | 417 kts | 169° |
| 2026-04-29 20:11 | 45.06272 | -3.43193 | 34877 ft | 417 kts | 170° |
| 2026-04-29 20:11 | 45.00582 | -3.41582 | 34878 ft | 417 kts | 170° |
| 2026-04-29 20:12 | 44.94886 | -3.39965 | 34876 ft | 417 kts | 170° |
| 2026-04-29 20:12 | 44.90130 | -3.38623 | 34421 ft | 414 kts | 170° |
| 2026-04-29 20:13 | 44.87305 | -3.37833 | 33701 ft | 413 kts | 170° |
| 2026-04-29 20:13 | 44.84527 | -3.37059 | 32881 ft | 412 kts | 170° |
| 2026-04-29 20:13 | 44.81672 | -3.36254 | 31967 ft | 414 kts | 169° |
| 2026-04-29 20:13 | 44.78876 | -3.35461 | 31024 ft | 417 kts | 169° |
| 2026-04-29 20:14 | 44.76016 | -3.34659 | 30076 ft | 421 kts | 169° |
| 2026-04-29 20:14 | 44.73135 | -3.33852 | 28953 ft | 424 kts | 169° |
| 2026-04-29 20:14 | 44.70222 | -3.33038 | 27757 ft | 429 kts | 169° |
| 2026-04-29 20:14 | 44.67281 | -3.32219 | 26696 ft | 432 kts | 169° |
| 2026-04-29 20:15 | 44.64346 | -3.31401 | 25904 ft | 428 kts | 169° |
| 2026-04-29 20:15 | 44.61442 | -3.30594 | 25360 ft | 425 kts | 169° |
| 2026-04-29 20:15 | 44.58523 | -3.29783 | 25020 ft | 427 kts | 169° |
| 2026-04-29 20:15 | 44.55606 | -3.28968 | 24658 ft | 427 kts | 169° |
| 2026-04-29 20:16 | 44.52696 | -3.28153 | 24299 ft | 426 kts | 169° |
| 2026-04-29 20:16 | 44.49795 | -3.27344 | 23952 ft | 424 kts | 169° |
| 2026-04-29 20:16 | 44.46906 | -3.26543 | 23590 ft | 423 kts | 169° |
| 2026-04-29 20:16 | 44.44031 | -3.25749 | 22993 ft | 420 kts | 169° |
| 2026-04-29 20:17 | 44.41173 | -3.24959 | 22371 ft | 416 kts | 169° |
| 2026-04-29 20:17 | 44.38348 | -3.24178 | 21762 ft | 412 kts | 169° |
| 2026-04-29 20:17 | 44.35547 | -3.23402 | 21166 ft | 408 kts | 169° |
| 2026-04-29 20:17 | 44.32773 | -3.22632 | 20583 ft | 405 kts | 169° |
| 2026-04-29 20:18 | 44.30024 | -3.21870 | 20011 ft | 401 kts | 169° |
| 2026-04-29 20:18 | 44.27297 | -3.21117 | 19446 ft | 398 kts | 170° |
| 2026-04-29 20:18 | 44.24595 | -3.20372 | 18893 ft | 394 kts | 170° |
| 2026-04-29 20:18 | 44.21910 | -3.19633 | 18353 ft | 391 kts | 170° |
| 2026-04-29 20:19 | 44.19250 | -3.18901 | 17775 ft | 389 kts | 170° |
| 2026-04-29 20:19 | 44.16604 | -3.18176 | 17151 ft | 386 kts | 170° |
| 2026-04-29 20:19 | 44.13976 | -3.17457 | 16560 ft | 384 kts | 170° |
| 2026-04-29 20:19 | 44.11363 | -3.16738 | 15972 ft | 382 kts | 170° |
| 2026-04-29 20:20 | 44.08779 | -3.16023 | 15506 ft | 371 kts | 170° |
| 2026-04-29 20:20 | 44.06318 | -3.15343 | 15141 ft | 350 kts | 170° |
| 2026-04-29 20:20 | 44.03988 | -3.14700 | 14897 ft | 335 kts | 170° |
| 2026-04-29 20:20 | 44.01756 | -3.14066 | 14651 ft | 329 kts | 170° |
| 2026-04-29 20:21 | 43.99524 | -3.13420 | 14402 ft | 327 kts | 170° |
| 2026-04-29 20:21 | 43.97307 | -3.12773 | 14166 ft | 325 kts | 169° |
| 2026-04-29 20:21 | 43.95089 | -3.12123 | 13932 ft | 325 kts | 169° |
| 2026-04-29 20:21 | 43.92850 | -3.11465 | 13694 ft | 326 kts | 169° |
| 2026-04-29 20:22 | 43.90654 | -3.10822 | 13431 ft | 319 kts | 169° |
| 2026-04-29 20:22 | 43.88521 | -3.10203 | 13174 ft | 316 kts | 169° |
| 2026-04-29 20:22 | 43.86377 | -3.09584 | 12912 ft | 314 kts | 169° |
| 2026-04-29 20:22 | 43.84245 | -3.08972 | 12651 ft | 312 kts | 169° |
| 2026-04-29 20:23 | 43.82121 | -3.08365 | 12397 ft | 311 kts | 169° |
| 2026-04-29 20:23 | 43.80007 | -3.07760 | 12144 ft | 310 kts | 169° |
| 2026-04-29 20:23 | 43.77869 | -3.07148 | 11881 ft | 309 kts | 169° |
| 2026-04-29 20:23 | 43.75798 | -3.06552 | 11631 ft | 308 kts | 169° |
| 2026-04-29 20:24 | 43.73681 | -3.05942 | 11399 ft | 311 kts | 169° |
| 2026-04-29 20:24 | 43.71592 | -3.05338 | 11142 ft | 303 kts | 169° |
| 2026-04-29 20:24 | 43.69551 | -3.04747 | 10896 ft | 296 kts | 169° |
| 2026-04-29 20:24 | 43.68192 | -3.04355 | 10731 ft | 294 kts | 169° |
| 2026-04-29 20:25 | 43.67873 | -3.04263 | 10693 ft | 293 kts | 169° |
| 2026-04-29 20:25 | 43.65815 | -3.03680 | 10438 ft | 286 kts | 169° |
| 2026-04-29 20:25 | 43.63876 | -3.03128 | 10203 ft | 282 kts | 169° |
| 2026-04-29 20:25 | 43.61966 | -3.02582 | 9977 ft | 279 kts | 169° |
| 2026-04-29 20:26 | 43.60067 | -3.02053 | 9781 ft | 277 kts | 173° |
| 2026-04-29 20:26 | 43.58148 | -3.02053 | 9654 ft | 277 kts | 189° |
| 2026-04-29 20:26 | 43.56315 | -3.02853 | 9397 ft | 279 kts | 206° |
| 2026-04-29 20:26 | 43.54700 | -3.04363 | 8713 ft | 279 kts | 216° |
| 2026-04-29 20:27 | 43.53154 | -3.05952 | 8061 ft | 275 kts | 216° |
| 2026-04-29 20:27 | 43.52143 | -3.06993 | 7633 ft | 273 kts | 216° |
| 2026-04-29 20:27 | 43.50121 | -3.09070 | 6774 ft | 269 kts | 215° |
| 2026-04-29 20:27 | 43.48627 | -3.10600 | 6098 ft | 267 kts | 215° |
| 2026-04-29 20:28 | 43.47146 | -3.12132 | 5386 ft | 265 kts | 219° |
| 2026-04-29 20:28 | 43.46099 | -3.14144 | 5025 ft | 254 kts | 245° |
| 2026-04-29 20:28 | 43.45571 | -3.16364 | 4850 ft | 234 kts | 248° |
| 2026-04-29 20:28 | 43.44788 | -3.18179 | 4672 ft | 217 kts | 221° |
| 2026-04-29 20:29 | 43.43545 | -3.19224 | 4565 ft | 208 kts | 197° |
| 2026-04-29 20:29 | 43.42120 | -3.19432 | 4512 ft | 204 kts | 174° |
| 2026-04-29 20:29 | 43.40805 | -3.18826 | 4388 ft | 199 kts | 152° |
| 2026-04-29 20:29 | 43.39794 | -3.17536 | 4195 ft | 200 kts | 129° |
| 2026-04-29 20:30 | 43.39135 | -3.15842 | 3949 ft | 201 kts | 122° |
| 2026-04-29 20:30 | 43.38523 | -3.14135 | 3713 ft | 197 kts | 122° |
| 2026-04-29 20:30 | 43.37919 | -3.12466 | 3427 ft | 193 kts | 122° |
| 2026-04-29 20:30 | 43.37335 | -3.10857 | 3169 ft | 188 kts | 122° |
| 2026-04-29 20:31 | 43.36757 | -3.09268 | 2918 ft | 184 kts | 122° |
| 2026-04-29 20:31 | 43.36192 | -3.07718 | 2674 ft | 179 kts | 121° |
| 2026-04-29 20:31 | 43.35653 | -3.06233 | 2430 ft | 168 kts | 122° |
| 2026-04-29 20:31 | 43.35153 | -3.04860 | 2207 ft | 154 kts | 122° |
| 2026-04-29 20:32 | 43.34692 | -3.03596 | 2011 ft | 143 kts | 122° |
| 2026-04-29 20:32 | 43.34252 | -3.02390 | 1841 ft | 139 kts | 122° |
| 2026-04-29 20:32 | 43.33823 | -3.01218 | 1644 ft | 137 kts | 121° |
| 2026-04-29 20:32 | 43.33396 | -3.00050 | 1455 ft | 137 kts | 120° |
| 2026-04-29 20:33 | 43.32967 | -2.98875 | 1255 ft | 138 kts | 118° |
| 2026-04-29 20:33 | 43.32538 | -2.97704 | 1061 ft | 137 kts | 118° |
| 2026-04-29 20:33 | 43.32111 | -2.96532 | 853 ft | 138 kts | 118° |
| 2026-04-29 20:33 | 43.31678 | -2.95349 | 636 ft | 139 kts | 119° |
| 2026-04-29 20:34 | 43.31238 | -2.94147 | 434 ft | 142 kts | 119° |
| 2026-04-29 20:34 | 43.30789 | -2.92914 | 238 ft | 146 kts | 120° |
| 2026-04-29 20:34 | 43.30348 | -2.91696 | 135 ft | 131 kts | 117° |
| 2026-04-29 20:34 | 43.30041 | -2.90876 | 126 ft | 51 kts | 115° |
| 2026-04-29 20:35 | 43.29949 | -2.90609 | 125 ft | 24 kts | 109° |
| 2026-04-29 20:35 | 43.29923 | -2.90394 | 133 ft | 21 kts | 90° |
| 2026-04-29 20:35 | 43.29937 | -2.90238 | 132 ft | 12 kts | 55° |
| 2026-04-29 20:35 | 43.29998 | -2.90247 | 132 ft | 10 kts | 300° |
| 2026-04-29 20:36 | 43.30027 | -2.90324 | 132 ft | 10 kts | 297° |
| 2026-04-29 20:36 | 43.30063 | -2.90425 | 132 ft | 13 kts | 296° |
| 2026-04-29 20:36 | 43.30113 | -2.90562 | 132 ft | 17 kts | 297° |
| 2026-04-29 20:36 | 43.30169 | -2.90712 | 132 ft | 19 kts | 296° |
| 2026-04-29 20:37 | 43.30229 | -2.90877 | 132 ft | 19 kts | 296° |
| 2026-04-29 20:37 | 43.30282 | -2.91017 | 132 ft | 13 kts | 307° |
| 2026-04-29 20:37 | 43.30356 | -2.91004 | 132 ft | 11 kts | 27° |
| 2026-04-29 20:37 | 43.30414 | -2.90946 | 132 ft | 10 kts | 72° |
| 2026-04-29 20:38 | 43.30413 | -2.90858 | 132 ft | 9 kts | 92° |
| 2026-04-29 20:38 | 43.30410 | -2.90782 | 132 ft | 6 kts | 65° |
| 2026-04-29 20:38 | 43.30442 | -2.90755 | 132 ft | 5 kts | 26° |
| 2026-04-29 20:38 | 43.30466 | -2.90740 | 132 ft | 0 kts | 26° |